Terminal Aerodrome Forecast
Issued by NWS Raleigh/Durham, NC

Home | Current Version | Previous Version | Text Only | Print | Product List | Glossary On
Versions: 1 2 3 4 5 6 7 8 9 10 11 12 13 14 15 16 17 18 19 20 21 22 23 24
000
FTUS42 KRAH 232339
TAFGSO
TAF
KGSO 232339Z 2400/2424 21013G21KT P6SM SCT050
     FM240400 22017G25KT P6SM BKN035 BKN070
      TEMPO 2405/2409 22025G35KT 3SM SHRA BKN025
     FM240900 24012KT P6SM SCT035 BKN080
     FM241200 26009KT P6SM SCT040 BKN150=

USA.gov is the U.S. government's official web portal to all federal, state and local government web resources and services.